createdAt,value
2022-09-23T00:01:50.993Z,100.00
2022-09-23T00:06:54.199Z,100.00
2022-09-23T00:11:57.533Z,100.00
2022-09-23T00:17:00.948Z,100.00
2022-09-23T00:22:03.749Z,100.00
2022-09-23T00:27:07.035Z,100.00
2022-09-23T00:32:11.036Z,100.00
2022-09-23T00:37:14.704Z,100.00
2022-09-23T00:42:18.629Z,100.00
2022-09-23T00:47:31.909Z,100.00
2022-09-23T00:52:35.062Z,100.00
2022-09-23T00:57:38.311Z,100.00
2022-09-23T01:02:41.543Z,100.00
2022-09-23T01:07:44.867Z,100.00
2022-09-23T01:12:48.173Z,100.00
2022-09-23T01:17:51.475Z,100.00
2022-09-23T01:22:54.790Z,100.00
2022-09-23T01:27:57.970Z,100.00
2022-09-23T01:33:01.226Z,100.00
2022-09-23T01:38:04.645Z,100.00
2022-09-23T01:43:07.981Z,100.00
2022-09-23T01:48:14.044Z,100.00
2022-09-23T01:53:17.304Z,100.00
2022-09-23T01:58:20.537Z,100.00
2022-09-23T02:03:27.338Z,100.00
2022-09-23T02:08:30.565Z,100.00
2022-09-23T02:13:33.750Z,100.00
2022-09-23T02:18:37.302Z,100.00
2022-09-23T02:23:41.464Z,100.00
2022-09-23T02:28:44.670Z,100.00
2022-09-23T02:33:48.838Z,100.00
2022-09-23T02:38:52.299Z,100.00
2022-09-23T02:43:55.957Z,100.00
2022-09-23T02:49:00.811Z,100.00
2022-09-23T02:54:04.493Z,100.00
2022-09-23T02:59:07.745Z,100.00
2022-09-23T03:04:11.855Z,100.00
2022-09-23T03:09:15.021Z,100.00
2022-09-23T03:14:18.244Z,100.00
2022-09-23T03:19:21.664Z,100.00
2022-09-23T03:24:24.905Z,100.00
2022-09-23T03:29:29.136Z,100.00
2022-09-23T03:34:32.429Z,100.00
2022-09-23T03:39:35.686Z,100.00
2022-09-23T03:44:39.117Z,100.00
2022-09-23T03:49:42.383Z,100.00
2022-09-23T03:54:45.671Z,100.00
2022-09-23T03:59:48.884Z,100.00
2022-09-23T04:04:52.097Z,100.00
2022-09-23T04:09:55.810Z,100.00
2022-09-23T04:14:58.977Z,100.00
2022-09-23T04:20:02.221Z,100.00
2022-09-23T04:25:05.445Z,100.00
2022-09-23T04:30:09.132Z,100.00
2022-09-23T04:35:12.478Z,100.00
2022-09-23T04:40:15.676Z,100.00
2022-09-23T04:45:19.249Z,100.00
2022-09-23T04:50:22.680Z,100.00
2022-09-23T04:55:26.067Z,100.00
2022-09-23T05:00:29.434Z,100.00
2022-09-23T05:05:33.124Z,100.00
2022-09-23T05:10:41.127Z,100.00
2022-09-23T05:15:44.321Z,100.00
2022-09-23T05:20:47.547Z,100.00
2022-09-23T05:25:50.727Z,100.00
2022-09-23T05:30:53.936Z,100.00
2022-09-23T05:35:57.226Z,100.00
2022-09-23T05:41:00.609Z,100.00
2022-09-23T05:46:07.957Z,100.00
2022-09-23T05:51:12.848Z,100.00
2022-09-23T05:56:16.146Z,100.00
2022-09-23T06:01:21.218Z,100.00
2022-09-23T06:06:29.076Z,100.00
2022-09-23T06:11:32.287Z,100.00
2022-09-23T06:16:35.723Z,100.00
2022-09-23T06:21:40.442Z,100.00
2022-09-23T06:26:43.625Z,100.00
2022-09-23T06:31:46.928Z,100.00
2022-09-23T06:36:51.809Z,100.00
2022-09-23T06:41:55.431Z,100.00
2022-09-23T06:46:58.686Z,100.00
2022-09-23T06:52:01.635Z,100.00
2022-09-23T06:57:04.521Z,100.00
2022-09-23T07:02:07.355Z,100.00
2022-09-23T07:07:11.507Z,100.00
2022-09-23T07:12:18.242Z,100.00
2022-09-23T07:17:21.006Z,100.00
2022-09-23T07:22:24.405Z,100.00
2022-09-23T07:27:27.185Z,100.00
2022-09-23T07:32:36.329Z,100.00
2022-09-23T07:37:43.672Z,100.00
2022-09-23T07:42:47.881Z,100.00
2022-09-23T07:47:51.833Z,100.00
2022-09-23T07:52:54.485Z,100.00
2022-09-23T07:57:57.147Z,100.00
2022-09-23T08:03:06.017Z,100.00
2022-09-23T08:08:09.901Z,99.06
2022-09-23T08:13:12.611Z,94.64
2022-09-23T08:18:15.689Z,93.50
2022-09-23T08:23:20.477Z,92.11
2022-09-23T08:28:24.166Z,91.28
2022-09-23T08:33:27.779Z,88.89
2022-09-23T08:38:30.998Z,86.30
2022-09-23T08:43:34.162Z,82.80
2022-09-23T08:48:37.510Z,82.00
2022-09-23T08:53:42.361Z,82.55
2022-09-23T08:58:45.521Z,84.47
2022-09-23T09:03:48.753Z,80.74
2022-09-23T09:08:52.376Z,82.90
2022-09-23T09:13:55.654Z,80.33
2022-09-23T09:18:59.854Z,80.02
2022-09-23T09:24:03.605Z,76.43
2022-09-23T09:29:30.713Z,77.86
2022-09-23T09:34:31.026Z,77.76
2022-09-23T09:39:34.293Z,76.81
2022-09-23T09:44:37.574Z,77.71
2022-09-23T09:49:40.921Z,75.75
2022-09-23T09:54:44.530Z,78.29
2022-09-23T09:59:47.814Z,76.97
2022-09-23T10:04:51.062Z,77.65
2022-09-23T10:09:58.352Z,77.07
2022-09-23T10:15:05.017Z,80.10
2022-09-23T10:20:08.462Z,77.08
2022-09-23T10:25:12.065Z,75.36
2022-09-23T10:30:15.371Z,74.27
2022-09-23T10:35:21.148Z,75.60
2022-09-23T10:40:42.237Z,70.36
2022-09-23T10:46:03.112Z,70.44
2022-09-23T10:51:06.438Z,68.18
2022-09-23T10:56:09.757Z,67.00
2022-09-23T11:01:13.540Z,60.66
2022-09-23T11:06:16.944Z,63.12
2022-09-23T11:11:21.210Z,61.47
2022-09-23T11:16:24.753Z,61.13
2022-09-23T11:21:28.315Z,59.73
2022-09-23T11:26:33.248Z,59.08
2022-09-23T11:31:37.789Z,58.99
2022-09-23T11:36:44.804Z,58.43
2022-09-23T11:41:48.142Z,57.18
2022-09-23T11:46:51.523Z,57.16
2022-09-23T11:51:54.693Z,58.59
2022-09-23T11:56:57.866Z,57.46
2022-09-23T12:02:13.522Z,55.24
2022-09-23T12:07:20.046Z,57.89
2022-09-23T12:12:26.872Z,56.41
2022-09-23T12:17:29.813Z,58.16
2022-09-23T12:22:32.546Z,58.16
2022-09-23T12:27:36.653Z,59.37
2022-09-23T12:32:39.327Z,58.24
2022-09-23T12:37:43.532Z,57.56
2022-09-23T12:42:46.329Z,56.82
2022-09-23T12:47:49.052Z,57.49
2022-09-23T12:52:51.930Z,56.30
2022-09-23T12:57:58.327Z,56.72
2022-09-23T13:03:19.025Z,56.20
2022-09-23T13:08:21.702Z,56.98
2022-09-23T13:13:25.267Z,57.03
2022-09-23T13:18:27.982Z,55.49
2022-09-23T13:23:31.306Z,56.75
2022-09-23T13:28:34.463Z,57.46
2022-09-23T13:33:37.667Z,57.03
2022-09-23T13:38:40.847Z,58.01
2022-09-23T13:43:43.517Z,57.97
2022-09-23T13:48:46.214Z,56.89
2022-09-23T13:53:48.997Z,56.55
2022-09-23T13:58:52.313Z,56.02
2022-09-23T14:03:55.021Z,58.18
2022-09-23T14:08:58.933Z,57.39
2022-09-23T14:14:07.175Z,56.07
2022-09-23T14:19:11.467Z,56.24
2022-09-23T14:24:14.616Z,56.97
2022-09-23T14:29:17.796Z,57.75
2022-09-23T14:34:21.013Z,58.30
2022-09-23T14:39:24.225Z,60.36
2022-09-23T14:44:28.168Z,59.72
2022-09-23T14:49:32.594Z,60.00
2022-09-23T14:54:39.499Z,60.91
2022-09-23T14:59:43.185Z,61.47
2022-09-23T15:04:46.902Z,62.06
2022-09-23T15:09:50.517Z,63.37
2022-09-23T15:14:53.711Z,63.99
2022-09-23T15:19:56.912Z,64.53
2022-09-23T15:25:00.177Z,65.19
2022-09-23T15:30:04.058Z,65.30
2022-09-23T15:35:07.873Z,66.26
2022-09-23T15:40:12.595Z,66.95
2022-09-23T15:45:17.276Z,68.75
2022-09-23T15:50:20.782Z,68.90
2022-09-23T15:55:24.492Z,69.60
2022-09-23T16:00:27.868Z,70.54
2022-09-23T16:05:34.362Z,71.92
2022-09-23T16:10:37.109Z,73.13
2022-09-23T16:15:39.878Z,74.14
2022-09-23T16:20:43.115Z,76.14
2022-09-23T16:25:45.814Z,77.55
2022-09-23T16:30:48.549Z,80.12
2022-09-23T16:35:51.785Z,80.87
2022-09-23T16:40:56.068Z,83.49
2022-09-23T16:45:59.325Z,84.56
2022-09-23T16:51:02.452Z,85.04
2022-09-23T16:56:06.650Z,85.44
2022-09-23T17:01:27.110Z,86.63
2022-09-23T17:06:31.120Z,89.12
2022-09-23T17:11:35.049Z,90.04
2022-09-23T17:16:38.626Z,91.30
2022-09-23T17:21:42.161Z,92.73
2022-09-23T17:26:52.047Z,93.95
2022-09-23T17:31:56.232Z,95.95
2022-09-23T17:36:59.371Z,97.68
2022-09-23T17:42:03.753Z,100.00
2022-09-23T17:47:07.654Z,100.00
2022-09-23T17:52:10.397Z,100.00
2022-09-23T17:57:13.960Z,99.01
2022-09-23T18:02:16.710Z,100.00
2022-09-23T18:07:19.507Z,100.00
2022-09-23T18:12:22.345Z,100.00
2022-09-23T18:17:25.027Z,100.00
2022-09-23T18:22:27.780Z,100.00
2022-09-23T18:27:31.418Z,100.00
2022-09-23T18:32:34.267Z,100.00
2022-09-23T18:37:37.433Z,100.00
2022-09-23T18:42:42.025Z,100.00
2022-09-23T18:48:03.329Z,100.00
2022-09-23T18:53:06.502Z,100.00
2022-09-23T18:58:12.141Z,100.00
2022-09-23T19:03:15.418Z,100.00
2022-09-23T19:08:19.937Z,100.00
2022-09-23T19:13:23.169Z,100.00
2022-09-23T19:18:26.358Z,100.00
2022-09-23T19:23:29.629Z,100.00
2022-09-23T19:28:33.281Z,100.00
2022-09-23T19:33:36.821Z,100.00
2022-09-23T19:38:40.011Z,100.00
2022-09-23T19:43:44.321Z,100.00
2022-09-23T19:48:48.548Z,100.00
2022-09-23T19:53:51.735Z,100.00
2022-09-23T19:58:55.703Z,100.00
2022-09-23T20:03:58.948Z,100.00
2022-09-23T20:09:02.247Z,100.00
2022-09-23T20:14:06.569Z,100.00
2022-09-23T20:19:10.096Z,100.00
2022-09-23T20:24:13.694Z,100.00
2022-09-23T20:29:16.884Z,100.00
2022-09-23T20:34:21.221Z,100.00
2022-09-23T20:39:24.461Z,100.00
2022-09-23T20:44:27.750Z,100.00
2022-09-23T20:49:34.177Z,100.00
2022-09-23T20:54:38.844Z,100.00
2022-09-23T20:59:42.128Z,100.00
2022-09-23T21:04:45.563Z,100.00
2022-09-23T21:09:48.700Z,100.00
2022-09-23T21:14:51.687Z,100.00
2022-09-23T21:19:54.902Z,100.00
2022-09-23T21:25:27.034Z,100.00
2022-09-23T21:30:20.394Z,100.00
2022-09-23T21:35:23.641Z,100.00
2022-09-23T21:40:44.738Z,100.00
2022-09-23T21:45:48.211Z,100.00
2022-09-23T21:50:52.323Z,100.00
2022-09-23T21:55:55.574Z,100.00
2022-09-23T22:00:59.858Z,100.00
2022-09-23T22:06:05.707Z,100.00
2022-09-23T22:11:09.005Z,100.00
2022-09-23T22:16:16.719Z,100.00
2022-09-23T22:21:20.621Z,100.00
2022-09-23T22:26:24.316Z,100.00
2022-09-23T22:31:45.404Z,100.00
2022-09-23T22:36:48.670Z,100.00
2022-09-23T22:41:51.829Z,100.00
2022-09-23T22:46:55.028Z,100.00
2022-09-23T22:51:58.619Z,100.00
2022-09-23T22:57:03.305Z,100.00
2022-09-23T23:02:08.216Z,100.00
2022-09-23T23:07:21.562Z,100.00
2022-09-23T23:12:24.803Z,100.00
2022-09-23T23:17:28.073Z,100.00
2022-09-23T23:22:31.334Z,100.00
2022-09-23T23:27:35.299Z,100.00
2022-09-23T23:32:38.535Z,100.00
2022-09-23T23:37:41.824Z,100.00
2022-09-23T23:42:45.023Z,100.00
2022-09-23T23:47:48.270Z,100.00
2022-09-23T23:52:51.618Z,100.00
2022-09-23T23:58:03.203Z,100.00
